Time;durP1;ratioP1;P1;durP2;ratioP2;P2;SDS_P1;SDS_P2;PMS_P1;PMS_P2;Temp;Humidity;BMP_temperature;BMP_pressure;BME280_temperature;BME280_humidity;BME280_pressure;Samples;Min_cycle;Max_cycle;Signal;HPM_P1;HPM_P2
2021/09/23 00:02:05;;;;;;;137.87;124.03;;;13.70;99.90;;;;;;5056270;28;20754;-82
2021/09/23 00:05:04;;;;;;;125.93;113.23;;;13.70;99.90;;;;;;5055962;28;20766;-82
2021/09/23 00:07:55;;;;;;;;;;;;;;;;;;;;;
2021/09/23 00:10:38;;;;;;;267.73;247.20;;;13.30;99.90;;;;;;5056172;28;20367;-82
2021/09/23 00:13:45;;;;;;;383.87;358.50;;;13.30;99.90;;;;;;5039114;28;20422;-81
2021/09/23 00:16:45;;;;;;;477.37;447.23;;;13.20;99.90;;;;;;5055955;28;20458;-81
2021/09/23 00:20:18;;;;;;;;;;;;;;;;;;;;;
2021/09/23 00:23:12;;;;;;;116.00;103.67;;;13.40;99.90;;;;;;5046553;28;21001;-81
2021/09/23 00:25:58;;;;;;;133.70;120.47;;;13.40;99.90;;;;;;5041691;28;20497;-81
2021/09/23 00:29:02;;;;;;;262.57;242.83;;;13.30;99.90;;;;;;5012238;28;20445;-82
2021/09/23 00:31:41;;;;;;;377.67;352.53;;;13.10;99.90;;;;;;5060323;28;20437;-82
2021/09/23 00:40:28;;;;;;;450.03;422.63;;;13.00;99.90;;;;;;4284347;22;20489;-80
2021/09/23 00:42:54;;;;;;;435.57;409.70;;;13.00;99.90;;;;;;5060484;28;20407;-80
2021/09/23 00:45:21;;;;;;;394.57;371.07;;;13.00;99.90;;;;;;5061030;28;20172;-80
2021/09/23 00:47:48;;;;;;;421.67;396.83;;;13.00;99.90;;;;;;5060269;28;20454;-80
2021/09/23 00:50:14;;;;;;;395.80;371.97;;;13.10;99.90;;;;;;5042655;28;20426;-80
2021/09/23 00:52:40;;;;;;;417.13;392.73;;;13.10;99.90;;;;;;5060281;28;20913;-80
2021/09/23 00:55:08;;;;;;;404.70;380.33;;;12.90;99.90;;;;;;5060087;28;20443;-80
2021/09/23 00:57:35;;;;;;;321.30;300.97;;;12.80;99.90;;;;;;5060327;28;20505;-80
2021/09/23 01:00:00;;;;;;;292.87;273.83;;;12.80;99.90;;;;;;5060404;28;20399;-80
2021/09/23 01:02:26;;;;;;;317.07;297.20;;;12.80;99.90;;;;;;5059629;28;20437;-80
2021/09/23 01:04:52;;;;;;;299.73;280.03;;;12.80;99.90;;;;;;5057753;28;20403;-80
2021/09/23 01:07:19;;;;;;;348.43;326.83;;;12.70;99.90;;;;;;5057598;28;20181;-80
2021/09/23 01:09:50;;;;;;;289.30;270.73;;;12.80;99.90;;;;;;5057571;28;20403;-80
2021/09/23 01:12:18;;;;;;;296.27;277.13;;;12.90;99.90;;;;;;5057494;28;20419;-80
2021/09/23 01:14:44;;;;;;;362.07;340.07;;;13.00;99.90;;;;;;5056918;28;20934;-80
2021/09/23 01:17:10;;;;;;;306.80;287.47;;;12.90;99.90;;;;;;5057273;28;20785;-80
2021/09/23 01:19:37;;;;;;;346.40;324.80;;;12.90;99.90;;;;;;5057236;28;20399;-80
2021/09/23 01:22:04;;;;;;;352.30;330.30;;;13.10;99.90;;;;;;5039443;28;20392;-80
2021/09/23 01:24:30;;;;;;;397.37;374.27;;;13.10;99.90;;;;;;5039409;28;20832;-80
2021/09/23 01:27:00;;;;;;;455.50;429.30;;;13.20;99.90;;;;;;5056718;28;20451;-80
2021/09/23 01:29:26;;;;;;;456.53;430.13;;;13.20;99.90;;;;;;5057204;28;20380;-80
2021/09/23 01:31:53;;;;;;;454.40;428.13;;;13.30;99.90;;;;;;5039232;28;20407;-80
2021/09/23 01:34:19;;;;;;;464.13;436.13;;;13.30;99.90;;;;;;5038509;28;20914;-79
2021/09/23 01:36:46;;;;;;;401.23;376.13;;;13.30;99.90;;;;;;5056999;28;20457;-80
2021/09/23 01:39:22;;;;;;;301.43;281.37;;;13.20;99.90;;;;;;5038835;28;20449;-80
2021/09/23 01:41:49;;;;;;;434.57;407.93;;;13.10;99.90;;;;;;5056529;28;20410;-80
2021/09/23 01:44:15;;;;;;;271.00;251.77;;;13.20;99.90;;;;;;5057195;28;20804;-80
2021/09/23 01:46:40;;;;;;;388.83;364.30;;;13.10;99.90;;;;;;5057642;28;20427;-80
2021/09/23 01:49:06;;;;;;;433.03;406.83;;;13.10;99.90;;;;;;5058395;28;20399;-80
2021/09/23 01:51:32;;;;;;;388.00;363.33;;;13.10;99.90;;;;;;5058170;28;20165;-80
2021/09/23 01:53:58;;;;;;;259.93;241.13;;;13.10;99.90;;;;;;5057409;28;20402;-80
2021/09/23 01:56:24;;;;;;;224.67;206.93;;;13.10;99.90;;;;;;5039608;28;20533;-80
2021/09/23 01:58:49;;;;;;;314.43;292.97;;;13.00;99.90;;;;;;5057724;28;20399;-79
2021/09/23 02:01:15;;;;;;;303.03;282.60;;;12.90;99.90;;;;;;5057433;28;20636;-80
2021/09/23 02:03:41;;;;;;;500.80;471.80;;;12.80;99.90;;;;;;5057921;28;20225;-80
2021/09/23 02:06:08;;;;;;;471.13;443.37;;;12.70;99.90;;;;;;5057346;28;20169;-80
2021/09/23 02:08:33;;;;;;;458.15;431.05;;;12.70;99.90;;;;;;5057016;28;20567;-80
2021/09/23 02:11:00;;;;;;;450.53;423.77;;;12.60;99.90;;;;;;5056587;28;20164;-80
2021/09/23 02:13:25;;;;;;;467.63;440.33;;;12.70;99.90;;;;;;5056211;28;20256;-80
2021/09/23 02:15:51;;;;;;;434.20;408.90;;;12.70;99.90;;;;;;5056355;28;20529;-80
2021/09/23 02:18:17;;;;;;;454.63;428.03;;;12.80;99.90;;;;;;5038325;28;20200;-80
2021/09/23 02:20:43;;;;;;;486.90;458.40;;;12.80;99.90;;;;;;5038629;28;20160;-80
2021/09/23 02:23:09;;;;;;;462.27;434.87;;;12.70;99.90;;;;;;5056887;28;20399;-80
2021/09/23 02:25:35;;;;;;;492.30;464.30;;;12.70;99.90;;;;;;5038668;28;20608;-80
2021/09/23 02:28:00;;;;;;;445.57;419.63;;;12.60;99.90;;;;;;5057257;28;20511;-80
2021/09/23 02:30:28;;;;;;;409.10;385.10;;;12.50;99.90;;;;;;5039777;28;20195;-80
2021/09/23 02:32:54;;;;;;;357.37;335.83;;;12.40;99.90;;;;;;5060024;28;20167;-80
2021/09/23 02:35:20;;;;;;;344.97;323.83;;;12.40;99.90;;;;;;5058845;28;20537;-80
2021/09/23 02:37:46;;;;;;;356.05;334.73;;;12.20;99.90;;;;;;5058540;28;20423;-80
2021/09/23 02:40:12;;;;;;;282.23;263.13;;;12.30;99.90;;;;;;5040848;28;20230;-80
2021/09/23 02:42:38;;;;;;;322.90;302.65;;;12.30;99.90;;;;;;5058828;28;20177;-80
2021/09/23 02:45:05;;;;;;;341.17;320.57;;;12.30;99.90;;;;;;5040744;28;20663;-80
2021/09/23 02:47:30;;;;;;;311.15;292.27;;;12.40;99.90;;;;;;5058389;28;20189;-80
2021/09/23 02:49:56;;;;;;;304.23;284.57;;;12.40;99.90;;;;;;5058353;28;20171;-80
2021/09/23 02:52:22;;;;;;;305.27;285.43;;;12.40;99.90;;;;;;5040416;28;20168;-80
2021/09/23 02:54:47;;;;;;;296.27;277.40;;;12.20;99.90;;;;;;5058801;28;20193;-80
2021/09/23 02:57:13;;;;;;;317.43;298.37;;;12.30;99.90;;;;;;5058206;28;20427;-80
2021/09/23 02:59:39;;;;;;;328.77;309.20;;;12.30;99.90;;;;;;5058620;28;20157;-80
2021/09/23 03:02:05;;;;;;;324.57;305.27;;;12.50;99.90;;;;;;5058529;28;20223;-80
2021/09/23 03:04:33;;;;;;;349.50;329.03;;;12.50;99.90;;;;;;5058454;28;20759;-80
2021/09/23 03:06:59;;;;;;;307.07;287.33;;;12.60;99.90;;;;;;5058365;28;20418;-80
2021/09/23 03:09:25;;;;;;;369.47;347.83;;;12.60;99.90;;;;;;5039435;28;20443;-80
2021/09/23 03:11:50;;;;;;;402.97;379.70;;;12.60;99.90;;;;;;5038518;28;20168;-80
2021/09/23 03:14:16;;;;;;;395.87;372.07;;;12.60;99.90;;;;;;5056082;28;20161;-80
2021/09/23 03:16:42;;;;;;;386.27;363.73;;;12.60;99.90;;;;;;5056421;28;20228;-80
2021/09/23 03:19:10;;;;;;;381.77;359.43;;;12.60;99.90;;;;;;5056533;28;20160;-80
2021/09/23 03:21:37;;;;;;;436.60;411.88;;;12.70;99.90;;;;;;5056365;28;20164;-80
2021/09/23 03:24:04;;;;;;;513.83;484.88;;;12.70;99.90;;;;;;5056652;28;20165;-80
2021/09/23 03:26:30;;;;;;;420.77;396.42;;;12.70;99.90;;;;;;5036917;28;20667;-80
2021/09/23 03:28:56;;;;;;;462.83;435.90;;;12.70;99.90;;;;;;5036884;28;20181;-80
2021/09/23 03:31:22;;;;;;;441.53;415.93;;;12.60;99.90;;;;;;5054733;28;20418;-80
2021/09/23 03:33:47;;;;;;;361.87;339.43;;;12.60;99.90;;;;;;5054702;28;20179;-80
2021/09/23 03:36:13;;;;;;;488.47;460.33;;;12.60;99.90;;;;;;5054735;28;20188;-80
2021/09/23 03:38:40;;;;;;;460.70;433.67;;;12.60;99.90;;;;;;5054798;28;20164;-80
2021/09/23 03:41:06;;;;;;;460.47;433.50;;;12.60;99.90;;;;;;5036672;28;20188;-80
2021/09/23 03:43:31;;;;;;;520.77;491.40;;;12.60;99.90;;;;;;5054728;28;20921;-80
2021/09/23 03:46:03;;;;;;;451.03;424.63;;;12.60;99.90;;;;;;5036573;28;20746;-80
2021/09/23 03:48:29;;;;;;;456.38;430.23;;;12.60;99.90;;;;;;5036877;28;20667;-80
2021/09/23 03:50:55;;;;;;;433.17;407.25;;;12.60;99.90;;;;;;5054017;28;20195;-80
2021/09/23 03:53:21;;;;;;;428.60;403.37;;;12.60;99.90;;;;;;5054156;28;20161;-80
2021/09/23 03:55:46;;;;;;;456.87;429.90;;;12.60;99.90;;;;;;5036606;28;20493;-80
2021/09/23 03:58:12;;;;;;;401.77;377.70;;;12.60;99.90;;;;;;5056578;28;20195;-80
2021/09/23 04:00:38;;;;;;;441.93;416.50;;;12.60;99.90;;;;;;5059011;28;20165;-80
2021/09/23 04:03:06;;;;;;;424.33;399.13;;;12.60;99.90;;;;;;5059011;28;20164;-80
2021/09/23 04:05:32;;;;;;;421.30;396.60;;;12.60;99.90;;;;;;5040674;28;20682;-80
2021/09/23 04:07:59;;;;;;;441.33;415.80;;;12.50;99.90;;;;;;5058697;28;20422;-80
2021/09/23 04:10:26;;;;;;;475.07;448.13;;;12.50;99.90;;;;;;5040651;28;20172;-80
2021/09/23 04:12:55;;;;;;;450.37;423.70;;;12.50;99.90;;;;;;5058006;28;20407;-80
2021/09/23 04:15:22;;;;;;;435.33;409.63;;;12.50;99.90;;;;;;5057992;28;20442;-80
2021/09/23 04:17:48;;;;;;;442.27;416.13;;;12.50;99.90;;;;;;5058166;28;20462;-80
2021/09/23 04:20:14;;;;;;;393.70;369.65;;;12.50;99.90;;;;;;5058296;28;20568;-80
2021/09/23 04:22:39;;;;;;;417.53;393.17;;;12.40;99.90;;;;;;5058313;28;20188;-80
2021/09/23 04:25:05;;;;;;;438.40;412.27;;;12.30;99.90;;;;;;5058105;28;20169;-80
2021/09/23 04:27:31;;;;;;;423.60;398.83;;;12.20;99.90;;;;;;5058259;28;20185;-79
2021/09/23 04:29:57;;;;;;;400.00;377.40;;;12.10;99.90;;;;;;5040034;28;20407;-80
2021/09/23 04:32:23;;;;;;;415.27;390.63;;;12.20;99.90;;;;;;5040334;28;20407;-79
2021/09/23 04:34:49;;;;;;;445.67;420.13;;;12.20;99.90;;;;;;5039847;28;20196;-80
2021/09/23 04:37:14;;;;;;;428.30;403.52;;;12.20;99.90;;;;;;5058033;28;20191;-79
2021/09/23 04:39:40;;;;;;;440.20;415.23;;;12.20;99.90;;;;;;5039927;28;20636;-79
2021/09/23 04:42:06;;;;;;;466.80;440.20;;;12.30;99.90;;;;;;5040017;28;20247;-79
2021/09/23 04:44:32;;;;;;;445.17;419.73;;;12.30;99.90;;;;;;5057994;28;20245;-80
2021/09/23 04:46:58;;;;;;;455.25;428.75;;;12.30;99.90;;;;;;5057581;28;20180;-79
2021/09/23 04:49:24;;;;;;;435.50;410.47;;;12.30;99.90;;;;;;5057813;28;20173;-80
2021/09/23 04:51:50;;;;;;;446.43;420.67;;;12.30;99.90;;;;;;5058352;28;20453;-79
2021/09/23 04:54:16;;;;;;;446.43;420.80;;;12.20;99.90;;;;;;5040760;28;20203;-79
2021/09/23 04:56:41;;;;;;;465.90;438.87;;;12.20;99.90;;;;;;5057549;28;20450;-80
2021/09/23 04:59:07;;;;;;;440.80;414.67;;;12.30;99.90;;;;;;5057649;28;20172;-80
2021/09/23 05:01:33;;;;;;;384.23;360.60;;;12.20;99.90;;;;;;5057453;28;20251;-80
2021/09/23 05:03:59;;;;;;;313.63;293.40;;;12.20;99.90;;;;;;5057181;28;20235;-79
2021/09/23 05:06:24;;;;;;;299.58;279.38;;;12.20;99.90;;;;;;5057184;28;20691;-80
2021/09/23 05:08:50;;;;;;;381.93;358.33;;;12.10;99.90;;;;;;5039134;28;20202;-80
2021/09/23 05:11:16;;;;;;;365.70;342.80;;;12.10;99.90;;;;;;5038377;28;20180;-80
2021/09/23 05:13:42;;;;;;;410.50;385.97;;;12.10;99.90;;;;;;5039331;28;20172;-79
2021/09/23 05:16:07;;;;;;;441.23;415.30;;;12.10;99.90;;;;;;5056816;28;20275;-80
2021/09/23 05:18:33;;;;;;;368.23;345.47;;;12.10;99.90;;;;;;5057162;28;20407;-80
2021/09/23 05:20:59;;;;;;;454.37;427.37;;;12.10;99.90;;;;;;5039072;28;20639;-80
2021/09/23 05:23:24;;;;;;;463.43;436.20;;;12.00;99.90;;;;;;5057492;28;20559;-80
2021/09/23 05:25:53;;;;;;;505.00;476.20;;;12.10;99.90;;;;;;5057423;28;20184;-80
2021/09/23 05:28:19;;;;;;;443.70;418.15;;;12.00;99.90;;;;;;5058063;28;20191;-80
2021/09/23 05:30:44;;;;;;;460.93;434.70;;;12.00;99.90;;;;;;5057552;28;20164;-80
2021/09/23 05:33:12;;;;;;;461.77;435.03;;;12.00;99.90;;;;;;5056984;28;20223;-80
2021/09/23 05:35:37;;;;;;;472.17;444.65;;;12.10;99.90;;;;;;5038567;28;20192;-80
2021/09/23 05:38:03;;;;;;;434.27;408.00;;;12.00;99.90;;;;;;5056371;28;20543;-80
2021/09/23 05:40:29;;;;;;;423.07;398.17;;;12.00;99.90;;;;;;5038619;28;20230;-80
2021/09/23 05:42:55;;;;;;;410.60;386.97;;;12.00;99.90;;;;;;5056298;28;20251;-80
2021/09/23 05:45:20;;;;;;;424.07;400.07;;;12.00;99.90;;;;;;5038759;28;20411;-80
2021/09/23 05:47:46;;;;;;;449.40;423.57;;;12.10;99.90;;;;;;5057052;28;20184;-80
2021/09/23 05:50:13;;;;;;;437.80;412.33;;;12.10;99.90;;;;;;5056790;28;20199;-80
2021/09/23 05:52:39;;;;;;;449.63;423.88;;;12.10;99.90;;;;;;5038617;28;20215;-80
2021/09/23 05:55:07;;;;;;;436.00;410.67;;;12.10;99.90;;;;;;5056057;28;20192;-80
2021/09/23 05:57:34;;;;;;;402.98;379.98;;;12.10;99.90;;;;;;5056043;28;20196;-79
2021/09/23 06:00:04;;;;;;;428.23;403.80;;;12.00;99.90;;;;;;5038585;28;20184;-80
2021/09/23 06:02:30;;;;;;;427.00;403.27;;;12.10;99.90;;;;;;5038685;28;20165;-80
2021/09/23 06:04:55;;;;;;;421.03;396.33;;;12.00;99.90;;;;;;5038475;28;20175;-80
2021/09/23 06:07:21;;;;;;;387.17;364.77;;;12.10;99.90;;;;;;5055812;28;20184;-80
2021/09/23 06:09:47;;;;;;;375.60;354.07;;;12.00;99.90;;;;;;5056234;28;20613;-80
2021/09/23 06:12:12;;;;;;;354.23;333.53;;;12.00;99.90;;;;;;5055972;28;20168;-80
2021/09/23 06:14:38;;;;;;;309.47;289.87;;;12.00;99.90;;;;;;5055626;28;20636;-80
2021/09/23 06:17:04;;;;;;;345.33;325.30;;;12.00;99.90;;;;;;5056026;28;20180;-80
2021/09/23 06:19:30;;;;;;;319.73;300.67;;;12.00;99.90;;;;;;5055842;28;20157;-80
2021/09/23 06:21:56;;;;;;;292.75;275.17;;;12.00;99.90;;;;;;5055159;28;20164;-80
2021/09/23 06:24:22;;;;;;;338.48;318.40;;;12.00;99.90;;;;;;5022113;28;20171;-80
2021/09/23 06:26:48;;;;;;;362.43;340.73;;;12.00;99.90;;;;;;5038326;28;20188;-80
2021/09/23 06:29:14;;;;;;;352.73;331.23;;;12.00;99.90;;;;;;5055982;28;20912;-80
2021/09/23 06:31:40;;;;;;;333.27;313.43;;;12.00;99.90;;;;;;5056734;28;20176;-80
2021/09/23 06:34:05;;;;;;;384.60;362.33;;;12.10;99.90;;;;;;5039770;28;20169;-80
2021/09/23 06:36:33;;;;;;;396.47;373.10;;;12.10;99.90;;;;;;5056188;28;20549;-80
2021/09/23 06:38:59;;;;;;;395.08;372.50;;;12.10;99.90;;;;;;5039642;28;20175;-80
2021/09/23 06:41:25;;;;;;;412.90;389.13;;;12.20;99.90;;;;;;5106339;23;20212;-89
2021/09/23 06:43:51;;;;;;;393.73;370.13;;;12.30;99.90;;;;;;5036008;28;20419;-89
2021/09/23 06:46:20;;;;;;;366.67;344.30;;;12.30;99.90;;;;;;5053135;28;20438;-90
2021/09/23 06:48:54;;;;;;;375.98;353.58;;;12.40;99.90;;;;;;5053798;28;20662;-89
2021/09/23 06:51:21;;;;;;;337.58;317.20;;;12.40;99.90;;;;;;5053894;28;20562;-89
2021/09/23 06:53:47;;;;;;;343.03;322.33;;;12.50;99.90;;;;;;5035782;28;20175;-89
2021/09/23 06:56:13;;;;;;;327.90;308.10;;;12.50;99.90;;;;;;5035574;28;20477;-89
2021/09/23 06:58:39;;;;;;;303.15;283.08;;;12.60;99.90;;;;;;5053519;28;20410;-90
2021/09/23 07:01:06;;;;;;;297.00;277.97;;;12.60;99.90;;;;;;5053436;28;20164;-89
2021/09/23 07:03:32;;;;;;;297.58;278.02;;;12.70;99.90;;;;;;5035593;28;20263;-90
2021/09/23 07:05:58;;;;;;;354.93;333.73;;;12.70;99.90;;;;;;5035843;28;20181;-90
2021/09/23 07:08:24;;;;;;;301.13;282.50;;;12.70;99.90;;;;;;5053380;28;20517;-90
2021/09/23 07:10:50;;;;;;;290.00;271.33;;;12.80;99.90;;;;;;5053545;28;20218;-91
2021/09/23 07:13:16;;;;;;;321.73;301.52;;;12.80;99.90;;;;;;5053397;28;20437;-90
2021/09/23 07:15:42;;;;;;;384.27;359.70;;;12.80;99.90;;;;;;5035689;28;20200;-90
2021/09/23 07:18:08;;;;;;;469.80;441.67;;;12.80;99.90;;;;;;5035370;28;20427;-90
2021/09/23 07:20:34;;;;;;;479.73;451.33;;;12.90;99.90;;;;;;5035747;28;20419;-90
2021/09/23 07:23:00;;;;;;;528.67;497.47;;;12.80;99.90;;;;;;5053210;28;20453;-89
2021/09/23 07:25:25;;;;;;;520.73;490.30;;;12.80;99.90;;;;;;5053202;28;20171;-90
2021/09/23 07:27:53;;;;;;;473.57;445.90;;;12.90;99.90;;;;;;5035219;28;20192;-90
2021/09/23 07:30:20;;;;;;;453.63;426.85;;;13.00;99.90;;;;;;5035300;28;20194;-90
2021/09/23 07:32:46;;;;;;;530.37;499.60;;;13.10;99.90;;;;;;5035835;28;20173;-89
2021/09/23 07:35:12;;;;;;;562.60;530.30;;;13.10;99.90;;;;;;5052990;28;20442;-90
2021/09/23 07:37:38;;;;;;;505.07;474.57;;;13.10;99.90;;;;;;5035279;28;20569;-90
2021/09/23 07:40:06;;;;;;;522.67;491.97;;;13.20;99.90;;;;;;5035111;28;20410;-90
2021/09/23 07:42:32;;;;;;;509.57;480.17;;;13.20;99.90;;;;;;5035557;28;20774;-90
2021/09/23 07:44:59;;;;;;;515.58;484.77;;;13.30;99.90;;;;;;5035257;28;20426;-90
2021/09/23 07:47:25;;;;;;;521.20;490.53;;;13.30;99.90;;;;;;5035057;28;20184;-90
2021/09/23 07:49:51;;;;;;;491.50;462.30;;;13.40;99.90;;;;;;5052875;28;20437;-90
2021/09/23 07:52:40;;;;;;;543.57;511.60;;;13.50;99.90;;;;;;5052894;28;20403;-90
2021/09/23 07:55:15;;;;;;;553.07;519.57;;;13.50;99.90;;;;;;5023322;28;20529;-90
2021/09/23 07:57:50;;;;;;;555.93;522.77;;;13.60;99.90;;;;;;5034942;28;20513;-89
2021/09/23 08:03:50;;;;;;;604.77;568.90;;;13.80;99.90;;;;;;4973130;28;20431;-89
2021/09/23 08:07:03;;;;;;;569.80;535.83;;;14.00;99.90;;;;;;5035973;28;20419;-90
2021/09/23 08:09:23;;;;;;;415.47;389.10;;;14.10;99.90;;;;;;5049035;28;20403;-90
2021/09/23 08:11:50;;;;;;;432.80;405.63;;;14.30;99.90;;;;;;5035135;28;20403;-90
2021/09/23 08:14:16;;;;;;;325.00;303.73;;;14.30;99.90;;;;;;5053583;28;20898;-90
2021/09/23 08:17:25;;;;;;;275.10;257.17;;;14.50;99.90;;;;;;5123553;22;20565;-89
2021/09/23 08:20:18;;;;;;;317.67;297.80;;;14.60;99.90;;;;;;5035512;28;20419;-89
2021/09/23 08:23:08;;;;;;;276.43;257.83;;;14.70;99.90;;;;;;5035991;28;20395;-89
2021/09/23 08:25:43;;;;;;;302.10;283.37;;;14.70;99.90;;;;;;5035510;28;20501;-89
2021/09/23 08:28:46;;;;;;;;;;;;;;;;;;;;;
2021/09/23 08:31:18;;;;;;;365.47;343.63;;;14.90;99.90;;;;;;5107567;22;20562;-90
2021/09/23 08:36:48;;;;;;;375.70;353.53;;;15.10;99.90;;;;;;5104940;22;20570;-90
2021/09/23 08:39:30;;;;;;;462.30;436.50;;;15.20;99.90;;;;;;5033529;28;20376;-90
2021/09/23 08:42:05;;;;;;;457.50;431.37;;;15.30;99.90;;;;;;5015383;28;20969;-90
2021/09/23 08:44:31;;;;;;;465.67;438.87;;;15.40;99.90;;;;;;5033126;28;20763;-90
2021/09/23 08:47:08;;;;;;;405.83;382.70;;;15.50;99.90;;;;;;5031926;23;20480;-90
2021/09/23 08:49:35;;;;;;;361.97;340.40;;;15.60;99.90;;;;;;5055971;28;20403;-90
2021/09/23 08:52:01;;;;;;;504.90;476.50;;;15.60;99.90;;;;;;5038369;28;20400;-90
2021/09/23 08:54:26;;;;;;;468.30;441.83;;;15.70;99.90;;;;;;5056322;28;20394;-89
2021/09/23 08:57:28;;;;;;;438.53;413.50;;;15.70;99.90;;;;;;5055904;28;20450;-90
2021/09/23 09:00:08;;;;;;;429.73;404.73;;;15.80;99.90;;;;;;4959036;28;20671;-89
2021/09/23 09:02:33;;;;;;;433.90;408.93;;;15.90;99.90;;;;;;5029304;28;20411;-89
2021/09/23 09:04:59;;;;;;;467.03;440.67;;;15.90;99.90;;;;;;5055758;28;20433;-89
2021/09/23 09:07:39;;;;;;;458.20;431.67;;;16.00;99.90;;;;;;5037766;28;20184;-91
2021/09/23 09:10:12;;;;;;;325.40;305.40;;;16.10;99.90;;;;;;5037503;28;20205;-90
2021/09/23 09:12:45;;;;;;;176.40;161.87;;;16.30;99.90;;;;;;5038656;28;20426;-90
2021/09/23 09:15:11;;;;;;;97.80;79.90;;;16.40;99.90;;;;;;5056235;28;20427;-90
2021/09/23 09:18:12;;;;;;;88.70;57.23;;;16.50;99.90;;;;;;5055881;28;20430;-90
2021/09/23 09:21:09;;;;;;;84.47;51.47;;;16.60;99.90;;;;;;5022168;28;20418;-90
2021/09/23 09:24:04;;;;;;;80.80;38.50;;;16.70;99.90;;;;;;5037998;28;20431;-90
2021/09/23 09:26:41;;;;;;;81.17;43.17;;;16.80;99.90;;;;;;5037330;28;20428;-91
2021/09/23 09:29:45;;;;;;;79.80;39.50;;;16.90;99.90;;;;;;5036937;28;20821;-90
2021/09/23 09:32:57;;;;;;;80.07;39.17;;;17.00;99.90;;;;;;5055838;28;20960;-90
2021/09/23 09:35:49;;;;;;;81.80;43.30;;;17.10;99.90;;;;;;4974539;28;20456;-91
2021/09/23 09:38:21;;;;;;;111.57;99.93;;;17.20;99.90;;;;;;5037466;28;20444;-91
2021/09/23 09:41:16;;;;;;;146.60;134.20;;;17.30;99.90;;;;;;5038505;28;20412;-90
2021/09/23 09:43:44;;;;;;;136.30;123.97;;;17.50;99.90;;;;;;5054962;28;20415;-90
2021/09/23 09:46:24;;;;;;;136.67;124.47;;;17.60;99.90;;;;;;5037389;28;20771;-91
2021/09/23 09:48:54;;;;;;;139.17;126.80;;;17.70;99.90;;;;;;5037548;28;20514;-91
2021/09/23 09:51:46;;;;;;;210.63;195.83;;;17.80;99.90;;;;;;5037513;28;20418;-90
2021/09/23 09:54:19;;;;;;;171.30;157.63;;;17.90;99.90;;;;;;5054976;28;20379;-90
2021/09/23 09:57:12;;;;;;;191.47;177.30;;;18.00;99.90;;;;;;5037220;28;20457;-90
2021/09/23 09:59:49;;;;;;;100.70;87.77;;;18.10;99.90;;;;;;5037211;28;20845;-91
2021/09/23 10:02:15;;;;;;;85.10;53.23;;;18.20;99.90;;;;;;5054770;28;20441;-90
2021/09/23 10:04:58;;;;;;;102.57;91.60;;;18.30;99.90;;;;;;5036950;28;20902;-91
2021/09/23 10:08:03;;;;;;;97.37;86.70;;;18.40;99.90;;;;;;5036712;28;20489;-91
2021/09/23 10:10:56;;;;;;;;;;;;;;;;;;;;;
2021/09/23 10:13:24;;;;;;;79.47;36.07;;;18.70;99.90;;;;;;5055133;28;20378;-89
2021/09/23 10:15:55;;;;;;;79.53;40.53;;;18.80;99.90;;;;;;5036684;28;20446;-89
2021/09/23 10:18:27;;;;;;;97.50;71.70;;;18.90;99.90;;;;;;5037014;28;20519;-90
2021/09/23 10:21:17;;;;;;;105.50;92.30;;;19.10;97.50;;;;;;5036550;28;20402;-90
2021/09/23 10:23:44;;;;;;;174.10;160.13;;;19.20;95.50;;;;;;5033400;28;20411;-89
2021/09/23 10:26:16;;;;;;;148.63;136.03;;;19.20;95.30;;;;;;5054144;28;20399;-90
2021/09/23 10:28:45;;;;;;;142.73;130.50;;;19.30;93.40;;;;;;5037402;28;20403;-89
2021/09/23 10:31:16;;;;;;;131.07;119.10;;;19.30;91.00;;;;;;5019038;28;20469;-89
2021/09/23 10:33:43;;;;;;;162.37;149.37;;;19.50;92.90;;;;;;5036356;28;20430;-90
2021/09/23 10:36:10;;;;;;;112.87;101.23;;;19.50;92.10;;;;;;5036204;28;20450;-90
2021/09/23 10:38:38;;;;;;;190.97;176.80;;;19.60;91.90;;;;;;5054326;28;20408;-90
2021/09/23 10:44:13;;;;;;;136.43;123.77;;;19.80;88.50;;;;;;5023423;28;20514;-91
2021/09/23 10:46:40;;;;;;;133.37;121.07;;;19.90;85.60;;;;;;5036109;28;20522;-90
2021/09/23 10:49:18;;;;;;;99.57;88.83;;;20.00;82.40;;;;;;5036306;28;20481;-91
2021/09/23 10:51:59;;;;;;;127.07;115.47;;;20.10;87.80;;;;;;5033475;28;20447;-90
2021/09/23 10:54:25;;;;;;;199.63;184.53;;;20.20;80.00;;;;;;5053814;28;20386;-89
2021/09/23 10:56:54;;;;;;;136.87;124.73;;;20.30;72.70;;;;;;5053556;28;20454;-90
2021/09/23 10:59:20;;;;;;;285.33;267.07;;;20.40;77.20;;;;;;5035814;28;20416;-90
2021/09/23 11:01:47;;;;;;;308.83;289.83;;;20.50;68.80;;;;;;5035911;28;20418;-90
2021/09/23 11:04:29;;;;;;;285.27;267.27;;;20.60;70.30;;;;;;5053633;28;20794;-90
2021/09/23 11:06:58;;;;;;;300.97;282.80;;;20.60;66.90;;;;;;5053328;28;20942;-89
2021/09/23 11:09:30;;;;;;;280.63;262.77;;;20.60;58.10;;;;;;5035526;28;20415;-90
2021/09/23 11:12:00;;;;;;;291.47;273.50;;;20.60;65.10;;;;;;5035828;28;20408;-90
2021/09/23 11:14:33;;;;;;;262.33;245.17;;;20.70;68.40;;;;;;5035032;28;20446;-91
2021/09/23 11:17:07;;;;;;;163.60;150.00;;;20.70;57.80;;;;;;5036260;28;20458;-90
2021/09/23 11:20:08;;;;;;;158.37;145.17;;;20.80;56.80;;;;;;5036203;28;20475;-91
2021/09/23 11:22:50;;;;;;;208.83;194.13;;;21.10;53.80;;;;;;5036444;28;20407;-91
2021/09/23 11:25:27;;;;;;;172.10;158.57;;;21.10;51.20;;;;;;5035928;28;20748;-91
2021/09/23 11:27:54;;;;;;;197.53;183.07;;;21.30;52.40;;;;;;5035942;28;20430;-90
2021/09/23 11:31:05;;;;;;;156.07;142.70;;;21.40;48.60;;;;;;5035476;28;20411;-91
2021/09/23 11:33:36;;;;;;;167.93;154.33;;;21.50;29.70;;;;;;5035489;28;20445;-91
2021/09/23 11:36:36;;;;;;;132.60;120.53;;;21.50;22.90;;;;;;5032330;28;20485;-92
2021/09/23 11:39:25;;;;;;;235.07;218.90;;;21.50;20.50;;;;;;4956227;28;20420;-91
2021/09/23 11:42:17;;;;;;;190.07;176.00;;;21.80;19.20;;;;;;4955526;28;20410;-91
2021/09/23 11:44:54;;;;;;;280.47;262.33;;;22.00;26.70;;;;;;5053098;28;20398;-90
2021/09/23 11:47:21;;;;;;;269.33;251.97;;;22.20;22.50;;;;;;5035337;28;20457;-90
2021/09/23 11:51:02;;;;;;;210.43;194.13;;;22.40;11.10;;;;;;5035086;28;20425;-91
2021/09/23 11:54:11;;;;;;;214.73;199.53;;;22.50;4.10;;;;;;5034889;28;20419;-90
2021/09/23 11:56:45;;;;;;;277.50;259.23;;;22.70;1.00;;;;;;5044432;28;20451;-92
2021/09/23 12:01:01;;;;;;;252.30;234.87;;;22.60;1.00;;;;;;5025500;28;20439;-90
2021/09/23 12:03:30;;;;;;;281.37;262.83;;;22.50;1.00;;;;;;4985417;28;20399;-90
2021/09/23 12:09:25;;;;;;;277.90;260.27;;;22.70;1.00;;;;;;5038211;28;20469;-91
2021/09/23 12:11:57;;;;;;;200.43;185.00;;;22.70;1.00;;;;;;5035114;28;20450;-90
2021/09/23 12:15:01;;;;;;;202.27;187.00;;;22.70;1.00;;;;;;5034966;28;20414;-91
2021/09/23 12:17:31;;;;;;;216.00;200.60;;;22.70;1.00;;;;;;5048415;28;20438;-91
2021/09/23 12:20:07;;;;;;;232.80;216.73;;;22.70;1.00;;;;;;5035897;28;20414;-91
2021/09/23 12:23:13;;;;;;;179.93;165.97;;;22.70;1.00;;;;;;5056850;28;20375;-91
2021/09/23 12:26:49;;;;;;;229.73;214.23;;;22.70;1.00;;;;;;5036503;28;20435;-91
2021/09/23 12:29:14;;;;;;;195.53;180.27;;;22.70;1.00;;;;;;5045724;28;20406;-91
2021/09/23 12:32:00;;;;;;;345.17;324.50;;;22.70;1.00;;;;;;5039327;28;20598;-91
2021/09/23 12:34:29;;;;;;;335.27;315.17;;;22.70;1.00;;;;;;5056256;28;20406;-91
2021/09/23 12:37:03;;;;;;;182.53;167.67;;;22.80;1.00;;;;;;5053560;23;20478;-91
2021/09/23 12:39:43;;;;;;;204.63;189.83;;;22.80;1.00;;;;;;5055233;28;20403;-90
2021/09/23 12:42:32;;;;;;;148.87;135.97;;;22.60;1.00;;;;;;5055145;28;20416;-90
2021/09/23 12:45:55;;;;;;;141.73;129.13;;;22.50;1.00;;;;;;5039214;28;20494;-90
2021/09/23 12:48:45;;;;;;;364.30;342.70;;;22.50;1.00;;;;;;4967397;28;20950;-90
2021/09/23 12:51:58;;;;;;;;;;;;;;;;;;;;;
2021/09/23 12:54:45;;;;;;;;;;;;;;;;;;;;;
2021/09/23 12:57:50;;;;;;;176.87;161.83;;;22.50;1.00;;;;;;5055490;28;20434;-92
2021/09/23 13:00:38;;;;;;;347.30;326.73;;;22.70;1.00;;;;;;5037342;28;20403;-88
2021/09/23 13:03:40;;;;;;;212.80;197.40;;;22.80;1.00;;;;;;5037980;28;20415;-91
2021/09/23 13:06:09;;;;;;;130.57;118.30;;;22.80;1.00;;;;;;5038691;28;20505;-88
2021/09/23 13:08:47;;;;;;;204.33;189.87;;;22.60;1.00;;;;;;5057043;28;20460;-90